sensor_id;sensor_type;location;lat;lon;timestamp;temperature;humidity
65884;HTU21D;52663;51.038;5.858;2022-10-23T00:00:22;15.67;75.31
65884;HTU21D;52663;51.038;5.858;2022-10-23T00:02:52;15.58;75.50
65884;HTU21D;52663;51.038;5.858;2022-10-23T00:05:20;15.46;75.92
65884;HTU21D;52663;51.038;5.858;2022-10-23T00:07:50;15.38;76.16
65884;HTU21D;52663;51.038;5.858;2022-10-23T00:10:16;15.28;76.60
65884;HTU21D;52663;51.038;5.858;2022-10-23T00:12:42;15.29;76.66
65884;HTU21D;52663;51.038;5.858;2022-10-23T00:15:08;15.33;76.63
65884;HTU21D;52663;51.038;5.858;2022-10-23T00:17:34;15.37;76.44
65884;HTU21D;52663;51.038;5.858;2022-10-23T00:20:00;15.42;76.24
65884;HTU21D;52663;51.038;5.858;2022-10-23T00:22:26;15.47;75.90
65884;HTU21D;52663;51.038;5.858;2022-10-23T00:24:52;15.51;75.62
65884;HTU21D;52663;51.038;5.858;2022-10-23T00:27:18;15.53;75.39
65884;HTU21D;52663;51.038;5.858;2022-10-23T00:29:44;15.52;75.20
65884;HTU21D;52663;51.038;5.858;2022-10-23T00:32:10;15.51;75.12
65884;HTU21D;52663;51.038;5.858;2022-10-23T00:34:35;15.52;74.96
65884;HTU21D;52663;51.038;5.858;2022-10-23T00:37:02;15.52;74.83
65884;HTU21D;52663;51.038;5.858;2022-10-23T00:39:28;15.52;74.71
65884;HTU21D;52663;51.038;5.858;2022-10-23T00:41:54;15.52;74.72
65884;HTU21D;52663;51.038;5.858;2022-10-23T00:46:46;15.49;74.54
65884;HTU21D;52663;51.038;5.858;2022-10-23T00:49:12;15.46;74.60
65884;HTU21D;52663;51.038;5.858;2022-10-23T00:51:45;15.42;74.80
65884;HTU21D;52663;51.038;5.858;2022-10-23T00:54:13;15.41;74.75
65884;HTU21D;52663;51.038;5.858;2022-10-23T00:56:43;15.40;74.74
65884;HTU21D;52663;51.038;5.858;2022-10-23T00:59:09;15.38;74.70
65884;HTU21D;52663;51.038;5.858;2022-10-23T01:01:36;15.32;74.79
65884;HTU21D;52663;51.038;5.858;2022-10-23T01:04:05;15.29;74.88
65884;HTU21D;52663;51.038;5.858;2022-10-23T01:06:39;15.29;74.86
65884;HTU21D;52663;51.038;5.858;2022-10-23T01:09:34;15.27;74.77
65884;HTU21D;52663;51.038;5.858;2022-10-23T01:12:23;15.26;74.76
65884;HTU21D;52663;51.038;5.858;2022-10-23T01:14:56;15.26;74.73
65884;HTU21D;52663;51.038;5.858;2022-10-23T01:17:55;15.29;74.63
65884;HTU21D;52663;51.038;5.858;2022-10-23T01:20:42;15.29;74.59
65884;HTU21D;52663;51.038;5.858;2022-10-23T01:26:23;15.29;74.43
65884;HTU21D;52663;51.038;5.858;2022-10-23T01:29:09;15.26;74.57
65884;HTU21D;52663;51.038;5.858;2022-10-23T01:32:18;15.24;74.66
65884;HTU21D;52663;51.038;5.858;2022-10-23T01:34:54;15.16;74.83
65884;HTU21D;52663;51.038;5.858;2022-10-23T01:37:38;15.16;74.96
65884;HTU21D;52663;51.038;5.858;2022-10-23T01:40:20;15.16;74.90
65884;HTU21D;52663;51.038;5.858;2022-10-23T01:42:53;15.19;74.89
65884;HTU21D;52663;51.038;5.858;2022-10-23T01:45:38;15.24;74.76
65884;HTU21D;52663;51.038;5.858;2022-10-23T01:48:11;15.27;74.70
65884;HTU21D;52663;51.038;5.858;2022-10-23T01:50:40;15.28;74.67
65884;HTU21D;52663;51.038;5.858;2022-10-23T01:53:07;15.29;74.65
65884;HTU21D;52663;51.038;5.858;2022-10-23T01:55:36;15.26;74.76
65884;HTU21D;52663;51.038;5.858;2022-10-23T01:58:06;15.22;74.94
65884;HTU21D;52663;51.038;5.858;2022-10-23T02:00:39;15.25;75.11
65884;HTU21D;52663;51.038;5.858;2022-10-23T02:03:08;15.27;75.12
65884;HTU21D;52663;51.038;5.858;2022-10-23T02:05:36;15.29;75.13
65884;HTU21D;52663;51.038;5.858;2022-10-23T02:08:05;15.31;75.11
65884;HTU21D;52663;51.038;5.858;2022-10-23T02:15:57;15.34;75.16
65884;HTU21D;52663;51.038;5.858;2022-10-23T02:18:50;15.37;75.17
65884;HTU21D;52663;51.038;5.858;2022-10-23T02:21:30;15.36;75.23
65884;HTU21D;52663;51.038;5.858;2022-10-23T02:24:00;15.39;75.16
65884;HTU21D;52663;51.038;5.858;2022-10-23T02:29:25;15.40;75.07
65884;HTU21D;52663;51.038;5.858;2022-10-23T02:31:53;15.43;75.06
65884;HTU21D;52663;51.038;5.858;2022-10-23T02:34:20;15.46;74.92
65884;HTU21D;52663;51.038;5.858;2022-10-23T02:36:46;15.45;74.92
65884;HTU21D;52663;51.038;5.858;2022-10-23T02:39:12;15.43;74.89
65884;HTU21D;52663;51.038;5.858;2022-10-23T02:47:31;15.38;74.85
65884;HTU21D;52663;51.038;5.858;2022-10-23T02:50:18;15.39;74.76
65884;HTU21D;52663;51.038;5.858;2022-10-23T02:53:06;15.41;74.73
65884;HTU21D;52663;51.038;5.858;2022-10-23T02:58:42;15.37;74.97
65884;HTU21D;52663;51.038;5.858;2022-10-23T03:01:17;15.32;75.21
65884;HTU21D;52663;51.038;5.858;2022-10-23T03:03:53;15.30;75.45
65884;HTU21D;52663;51.038;5.858;2022-10-23T03:06:21;15.27;75.65
65884;HTU21D;52663;51.038;5.858;2022-10-23T03:08:57;15.24;75.91
65884;HTU21D;52663;51.038;5.858;2022-10-23T03:11:25;15.21;76.30
65884;HTU21D;52663;51.038;5.858;2022-10-23T03:13:51;15.19;76.54
65884;HTU21D;52663;51.038;5.858;2022-10-23T03:16:16;15.21;76.67
65884;HTU21D;52663;51.038;5.858;2022-10-23T03:18:49;15.24;76.65
65884;HTU21D;52663;51.038;5.858;2022-10-23T03:21:16;15.28;76.57
65884;HTU21D;52663;51.038;5.858;2022-10-23T03:23:42;15.29;76.50
65884;HTU21D;52663;51.038;5.858;2022-10-23T03:26:08;15.30;76.44
65884;HTU21D;52663;51.038;5.858;2022-10-23T03:28:41;15.33;76.43
65884;HTU21D;52663;51.038;5.858;2022-10-23T03:31:07;15.37;76.26
65884;HTU21D;52663;51.038;5.858;2022-10-23T03:33:35;15.40;76.22
65884;HTU21D;52663;51.038;5.858;2022-10-23T03:36:21;15.40;76.15
65884;HTU21D;52663;51.038;5.858;2022-10-23T03:38:47;15.42;76.28
65884;HTU21D;52663;51.038;5.858;2022-10-23T03:41:13;15.41;76.46
65884;HTU21D;52663;51.038;5.858;2022-10-23T03:43:39;15.43;76.53
65884;HTU21D;52663;51.038;5.858;2022-10-23T03:46:05;15.42;76.67
65884;HTU21D;52663;51.038;5.858;2022-10-23T03:48:34;15.41;76.90
65884;HTU21D;52663;51.038;5.858;2022-10-23T03:51:04;15.42;76.98
65884;HTU21D;52663;51.038;5.858;2022-10-23T03:53:30;15.44;76.96
65884;HTU21D;52663;51.038;5.858;2022-10-23T03:55:56;15.44;76.92
65884;HTU21D;52663;51.038;5.858;2022-10-23T03:58:22;15.43;77.03
65884;HTU21D;52663;51.038;5.858;2022-10-23T04:00:47;15.41;77.07
65884;HTU21D;52663;51.038;5.858;2022-10-23T04:03:13;15.40;77.33
65884;HTU21D;52663;51.038;5.858;2022-10-23T04:05:40;15.39;77.40
65884;HTU21D;52663;51.038;5.858;2022-10-23T04:08:08;15.39;77.46
65884;HTU21D;52663;51.038;5.858;2022-10-23T04:10:33;15.41;77.51
65884;HTU21D;52663;51.038;5.858;2022-10-23T04:12:59;15.40;77.57
65884;HTU21D;52663;51.038;5.858;2022-10-23T04:15:26;15.42;77.69
65884;HTU21D;52663;51.038;5.858;2022-10-23T04:17:52;15.41;77.66
65884;HTU21D;52663;51.038;5.858;2022-10-23T04:20:18;15.43;77.70
65884;HTU21D;52663;51.038;5.858;2022-10-23T04:22:44;15.44;77.76
65884;HTU21D;52663;51.038;5.858;2022-10-23T04:25:10;15.44;77.84
65884;HTU21D;52663;51.038;5.858;2022-10-23T04:27:38;15.41;77.93
65884;HTU21D;52663;51.038;5.858;2022-10-23T04:30:04;15.39;78.14
65884;HTU21D;52663;51.038;5.858;2022-10-23T04:32:33;15.39;78.14
65884;HTU21D;52663;51.038;5.858;2022-10-23T04:34:59;15.39;78.11
65884;HTU21D;52663;51.038;5.858;2022-10-23T04:37:25;15.39;78.16
65884;HTU21D;52663;51.038;5.858;2022-10-23T04:39:52;15.38;78.24
65884;HTU21D;52663;51.038;5.858;2022-10-23T04:42:18;15.38;78.34
65884;HTU21D;52663;51.038;5.858;2022-10-23T04:44:44;15.37;78.41
65884;HTU21D;52663;51.038;5.858;2022-10-23T04:47:11;15.40;78.36
65884;HTU21D;52663;51.038;5.858;2022-10-23T04:49:47;15.39;78.33
65884;HTU21D;52663;51.038;5.858;2022-10-23T04:52:35;15.39;78.39
65884;HTU21D;52663;51.038;5.858;2022-10-23T04:55:22;15.38;78.41
65884;HTU21D;52663;51.038;5.858;2022-10-23T04:58:07;15.40;78.30
65884;HTU21D;52663;51.038;5.858;2022-10-23T05:00:33;15.36;78.43
65884;HTU21D;52663;51.038;5.858;2022-10-23T05:02:59;15.36;78.54
65884;HTU21D;52663;51.038;5.858;2022-10-23T05:05:31;15.34;78.60
65884;HTU21D;52663;51.038;5.858;2022-10-23T05:08:16;15.34;78.64
65884;HTU21D;52663;51.038;5.858;2022-10-23T05:10:58;15.34;78.63
65884;HTU21D;52663;51.038;5.858;2022-10-23T05:13:24;15.34;78.63
65884;HTU21D;52663;51.038;5.858;2022-10-23T05:15:51;15.36;78.58
65884;HTU21D;52663;51.038;5.858;2022-10-23T05:18:26;15.36;78.56
65884;HTU21D;52663;51.038;5.858;2022-10-23T05:20:58;15.37;78.55
65884;HTU21D;52663;51.038;5.858;2022-10-23T05:23:29;15.37;78.56
65884;HTU21D;52663;51.038;5.858;2022-10-23T05:25:59;15.39;78.43
65884;HTU21D;52663;51.038;5.858;2022-10-23T05:28:29;15.39;78.46
65884;HTU21D;52663;51.038;5.858;2022-10-23T05:30:57;15.40;78.39
65884;HTU21D;52663;51.038;5.858;2022-10-23T05:33:27;15.43;78.25
65884;HTU21D;52663;51.038;5.858;2022-10-23T05:35:54;15.45;78.10
65884;HTU21D;52663;51.038;5.858;2022-10-23T05:38:26;15.45;78.01
65884;HTU21D;52663;51.038;5.858;2022-10-23T05:40:54;15.46;77.97
65884;HTU21D;52663;51.038;5.858;2022-10-23T05:43:21;15.49;77.88
65884;HTU21D;52663;51.038;5.858;2022-10-23T05:46:08;15.51;77.73
65884;HTU21D;52663;51.038;5.858;2022-10-23T05:48:43;15.53;77.66
65884;HTU21D;52663;51.038;5.858;2022-10-23T05:51:23;15.53;77.60
65884;HTU21D;52663;51.038;5.858;2022-10-23T05:54:12;15.53;77.60
65884;HTU21D;52663;51.038;5.858;2022-10-23T05:56:44;15.54;77.42
65884;HTU21D;52663;51.038;5.858;2022-10-23T05:59:30;15.52;77.49
65884;HTU21D;52663;51.038;5.858;2022-10-23T06:01:59;15.48;77.70
65884;HTU21D;52663;51.038;5.858;2022-10-23T06:04:54;15.49;77.78
65884;HTU21D;52663;51.038;5.858;2022-10-23T06:07:38;15.52;77.76
65884;HTU21D;52663;51.038;5.858;2022-10-23T06:10:06;15.53;77.63
65884;HTU21D;52663;51.038;5.858;2022-10-23T06:12:34;15.52;77.72
65884;HTU21D;52663;51.038;5.858;2022-10-23T06:15:01;15.49;77.81
65884;HTU21D;52663;51.038;5.858;2022-10-23T06:17:46;15.46;78.10
65884;HTU21D;52663;51.038;5.858;2022-10-23T06:20:12;15.46;78.22
65884;HTU21D;52663;51.038;5.858;2022-10-23T06:22:39;15.48;78.27
65884;HTU21D;52663;51.038;5.858;2022-10-23T06:25:20;15.51;78.21
65884;HTU21D;52663;51.038;5.858;2022-10-23T06:27:49;15.51;78.25
65884;HTU21D;52663;51.038;5.858;2022-10-23T06:30:16;15.53;78.21
65884;HTU21D;52663;51.038;5.858;2022-10-23T06:32:44;15.53;78.18
65884;HTU21D;52663;51.038;5.858;2022-10-23T06:35:11;15.56;78.16
65884;HTU21D;52663;51.038;5.858;2022-10-23T06:37:37;15.57;78.24
65884;HTU21D;52663;51.038;5.858;2022-10-23T06:40:08;15.59;78.14
65884;HTU21D;52663;51.038;5.858;2022-10-23T06:42:56;15.59;78.15
65884;HTU21D;52663;51.038;5.858;2022-10-23T06:45:35;15.61;78.11
65884;HTU21D;52663;51.038;5.858;2022-10-23T06:48:14;15.59;78.15
65884;HTU21D;52663;51.038;5.858;2022-10-23T06:50:43;15.60;78.14
65884;HTU21D;52663;51.038;5.858;2022-10-23T06:53:16;15.59;78.26
65884;HTU21D;52663;51.038;5.858;2022-10-23T06:55:48;15.60;78.34
65884;HTU21D;52663;51.038;5.858;2022-10-23T06:58:14;15.61;78.36
65884;HTU21D;52663;51.038;5.858;2022-10-23T07:00:54;15.61;78.33
65884;HTU21D;52663;51.038;5.858;2022-10-23T07:03:20;15.61;78.38
65884;HTU21D;52663;51.038;5.858;2022-10-23T07:06:08;15.59;78.38
65884;HTU21D;52663;51.038;5.858;2022-10-23T07:08:35;15.57;78.50
65884;HTU21D;52663;51.038;5.858;2022-10-23T07:11:08;15.58;78.66
65884;HTU21D;52663;51.038;5.858;2022-10-23T07:13:36;15.59;78.69
65884;HTU21D;52663;51.038;5.858;2022-10-23T07:16:19;15.65;78.72
65884;HTU21D;52663;51.038;5.858;2022-10-23T07:18:47;15.70;78.51
65884;HTU21D;52663;51.038;5.858;2022-10-23T07:21:36;15.76;78.34
65884;HTU21D;52663;51.038;5.858;2022-10-23T07:24:21;15.82;78.21
65884;HTU21D;52663;51.038;5.858;2022-10-23T07:26:47;15.88;78.15
65884;HTU21D;52663;51.038;5.858;2022-10-23T07:29:13;15.96;78.00
65884;HTU21D;52663;51.038;5.858;2022-10-23T07:31:40;16.01;77.81
65884;HTU21D;52663;51.038;5.858;2022-10-23T07:34:24;16.08;77.69
65884;HTU21D;52663;51.038;5.858;2022-10-23T07:37:06;16.16;77.53
65884;HTU21D;52663;51.038;5.858;2022-10-23T07:39:32;16.26;77.35
65884;HTU21D;52663;51.038;5.858;2022-10-23T07:41:59;16.34;77.24
65884;HTU21D;52663;51.038;5.858;2022-10-23T07:44:25;16.46;76.84
65884;HTU21D;52663;51.038;5.858;2022-10-23T07:46:51;16.51;76.56
65884;HTU21D;52663;51.038;5.858;2022-10-23T07:49:17;16.56;76.49
65884;HTU21D;52663;51.038;5.858;2022-10-23T07:51:43;16.64;76.39
65884;HTU21D;52663;51.038;5.858;2022-10-23T07:54:11;16.71;76.05
65884;HTU21D;52663;51.038;5.858;2022-10-23T07:56:58;16.78;75.85
65884;HTU21D;52663;51.038;5.858;2022-10-23T07:59:33;16.87;75.52
65884;HTU21D;52663;51.038;5.858;2022-10-23T08:02:07;16.94;75.10
65884;HTU21D;52663;51.038;5.858;2022-10-23T08:04:36;16.99;75.03
65884;HTU21D;52663;51.038;5.858;2022-10-23T08:07:15;17.02;74.89
65884;HTU21D;52663;51.038;5.858;2022-10-23T08:09:50;17.05;74.96
65884;HTU21D;52663;51.038;5.858;2022-10-23T08:12:16;17.10;74.93
65884;HTU21D;52663;51.038;5.858;2022-10-23T08:14:42;17.20;74.79
65884;HTU21D;52663;51.038;5.858;2022-10-23T08:17:08;17.28;74.72
65884;HTU21D;52663;51.038;5.858;2022-10-23T08:19:57;17.37;74.54
65884;HTU21D;52663;51.038;5.858;2022-10-23T08:22:33;17.39;74.57
65884;HTU21D;52663;51.038;5.858;2022-10-23T08:25:02;17.41;74.49
65884;HTU21D;52663;51.038;5.858;2022-10-23T08:27:30;17.48;74.60
65884;HTU21D;52663;51.038;5.858;2022-10-23T08:29:56;17.53;74.28
65884;HTU21D;52663;51.038;5.858;2022-10-23T08:32:22;17.60;74.13
65884;HTU21D;52663;51.038;5.858;2022-10-23T08:34:57;17.66;73.90
65884;HTU21D;52663;51.038;5.858;2022-10-23T08:37:25;17.70;73.60
65884;HTU21D;52663;51.038;5.858;2022-10-23T08:39:54;17.77;73.44
65884;HTU21D;52663;51.038;5.858;2022-10-23T08:42:41;17.78;73.39
65884;HTU21D;52663;51.038;5.858;2022-10-23T08:45:50;17.82;73.32
65884;HTU21D;52663;51.038;5.858;2022-10-23T08:48:43;17.84;73.32
65884;HTU21D;52663;51.038;5.858;2022-10-23T08:51:43;17.90;73.22
65884;HTU21D;52663;51.038;5.858;2022-10-23T08:54:38;17.92;73.34
65884;HTU21D;52663;51.038;5.858;2022-10-23T08:57:15;18.02;73.12
65884;HTU21D;52663;51.038;5.858;2022-10-23T08:59:48;18.07;72.81
65884;HTU21D;52663;51.038;5.858;2022-10-23T09:02:20;18.08;72.58
65884;HTU21D;52663;51.038;5.858;2022-10-23T09:04:52;18.12;72.53
65884;HTU21D;52663;51.038;5.858;2022-10-23T09:16:37;18.53;71.96
65884;HTU21D;52663;51.038;5.858;2022-10-23T09:19:15;18.69;72.04
65884;HTU21D;52663;51.038;5.858;2022-10-23T09:21:45;18.87;71.40
65884;HTU21D;52663;51.038;5.858;2022-10-23T09:24:19;18.98;70.50
65884;HTU21D;52663;51.038;5.858;2022-10-23T09:26:47;18.98;70.25
65884;HTU21D;52663;51.038;5.858;2022-10-23T09:29:27;18.97;70.14
65884;HTU21D;52663;51.038;5.858;2022-10-23T09:31:59;18.95;70.26
65884;HTU21D;52663;51.038;5.858;2022-10-23T09:34:28;18.94;70.48
65884;HTU21D;52663;51.038;5.858;2022-10-23T09:36:59;18.93;70.65
65884;HTU21D;52663;51.038;5.858;2022-10-23T09:39:33;18.91;70.97
65884;HTU21D;52663;51.038;5.858;2022-10-23T09:42:01;18.93;71.02
65884;HTU21D;52663;51.038;5.858;2022-10-23T09:44:47;18.97;71.17
65884;HTU21D;52663;51.038;5.858;2022-10-23T09:47:18;19.02;71.10
65884;HTU21D;52663;51.038;5.858;2022-10-23T09:49:55;19.08;70.98
65884;HTU21D;52663;51.038;5.858;2022-10-23T09:52:29;19.12;71.05
65884;HTU21D;52663;51.038;5.858;2022-10-23T09:55:18;19.18;70.99
65884;HTU21D;52663;51.038;5.858;2022-10-23T09:57:45;19.23;70.86
65884;HTU21D;52663;51.038;5.858;2022-10-23T10:02:42;19.21;70.92
65884;HTU21D;52663;51.038;5.858;2022-10-23T10:05:40;19.15;71.02
65884;HTU21D;52663;51.038;5.858;2022-10-23T10:08:14;19.12;71.32
65884;HTU21D;52663;51.038;5.858;2022-10-23T10:10:59;19.09;71.46
65884;HTU21D;52663;51.038;5.858;2022-10-23T10:13:35;19.11;71.62
65884;HTU21D;52663;51.038;5.858;2022-10-23T10:16:53;19.15;71.51
65884;HTU21D;52663;51.038;5.858;2022-10-23T10:22:55;19.25;71.24
65884;HTU21D;52663;51.038;5.858;2022-10-23T10:25:35;19.26;71.21
65884;HTU21D;52663;51.038;5.858;2022-10-23T10:30:59;19.18;71.39
65884;HTU21D;52663;51.038;5.858;2022-10-23T10:33:40;19.21;71.49
65884;HTU21D;52663;51.038;5.858;2022-10-23T10:39:26;19.31;71.35
65884;HTU21D;52663;51.038;5.858;2022-10-23T10:42:23;19.33;71.38
65884;HTU21D;52663;51.038;5.858;2022-10-23T10:45:32;19.38;71.21
65884;HTU21D;52663;51.038;5.858;2022-10-23T10:53:59;19.47;71.10
65884;HTU21D;52663;51.038;5.858;2022-10-23T10:56:32;19.54;70.98
65884;HTU21D;52663;51.038;5.858;2022-10-23T10:59:03;19.62;71.08
65884;HTU21D;52663;51.038;5.858;2022-10-23T11:01:49;19.76;70.62
65884;HTU21D;52663;51.038;5.858;2022-10-23T11:07:09;19.87;70.27
65884;HTU21D;52663;51.038;5.858;2022-10-23T11:09:37;19.98;70.26
65884;HTU21D;52663;51.038;5.858;2022-10-23T11:12:03;20.11;70.00
65884;HTU21D;52663;51.038;5.858;2022-10-23T11:14:33;20.27;69.42
65884;HTU21D;52663;51.038;5.858;2022-10-23T11:20:04;20.61;68.34
65884;HTU21D;52663;51.038;5.858;2022-10-23T11:22:49;20.76;67.62
65884;HTU21D;52663;51.038;5.858;2022-10-23T11:28:22;21.20;66.56
65884;HTU21D;52663;51.038;5.858;2022-10-23T11:33:56;21.70;64.90
65884;HTU21D;52663;51.038;5.858;2022-10-23T11:39:20;21.96;63.20
65884;HTU21D;52663;51.038;5.858;2022-10-23T11:41:51;21.88;62.92
65884;HTU21D;52663;51.038;5.858;2022-10-23T11:44:38;21.82;63.02
65884;HTU21D;52663;51.038;5.858;2022-10-23T11:50:27;21.93;62.92
65884;HTU21D;52663;51.038;5.858;2022-10-23T11:53:02;21.98;62.23
65884;HTU21D;52663;51.038;5.858;2022-10-23T11:55:31;21.87;62.32
65884;HTU21D;52663;51.038;5.858;2022-10-23T12:00:32;21.70;62.89
65884;HTU21D;52663;51.038;5.858;2022-10-23T12:03:00;21.64;63.06
65884;HTU21D;52663;51.038;5.858;2022-10-23T12:05:38;21.50;63.74
65884;HTU21D;52663;51.038;5.858;2022-10-23T12:08:19;21.46;64.43
65884;HTU21D;52663;51.038;5.858;2022-10-23T12:10:48;21.48;64.64
65884;HTU21D;52663;51.038;5.858;2022-10-23T12:16:03;21.66;64.09
65884;HTU21D;52663;51.038;5.858;2022-10-23T12:18:30;21.68;63.52
65884;HTU21D;52663;51.038;5.858;2022-10-23T12:21:00;21.68;63.43
65884;HTU21D;52663;51.038;5.858;2022-10-23T12:32:28;21.92;62.57
65884;HTU21D;52663;51.038;5.858;2022-10-23T12:38:19;22.02;62.36
65884;HTU21D;52663;51.038;5.858;2022-10-23T12:41:02;22.01;62.34
65884;HTU21D;52663;51.038;5.858;2022-10-23T12:43:32;22.03;62.23
65884;HTU21D;52663;51.038;5.858;2022-10-23T12:46:27;21.96;62.14
65884;HTU21D;52663;51.038;5.858;2022-10-23T12:48:54;21.89;62.37
65884;HTU21D;52663;51.038;5.858;2022-10-23T12:51:33;21.90;62.33
65884;HTU21D;52663;51.038;5.858;2022-10-23T12:54:00;21.88;62.44
65884;HTU21D;52663;51.038;5.858;2022-10-23T12:56:33;21.84;62.66
65884;HTU21D;52663;51.038;5.858;2022-10-23T12:59:00;21.85;62.51
65884;HTU21D;52663;51.038;5.858;2022-10-23T13:01:31;21.85;62.26
65884;HTU21D;52663;51.038;5.858;2022-10-23T13:06:38;21.85;62.29
65884;HTU21D;52663;51.038;5.858;2022-10-23T13:09:15;21.90;62.15
65884;HTU21D;52663;51.038;5.858;2022-10-23T13:12:28;21.98;62.10
65884;HTU21D;52663;51.038;5.858;2022-10-23T13:17:35;22.09;61.58
65884;HTU21D;52663;51.038;5.858;2022-10-23T13:20:32;22.16;61.47
65884;HTU21D;52663;51.038;5.858;2022-10-23T13:23:33;22.25;61.14
65884;HTU21D;52663;51.038;5.858;2022-10-23T13:26:03;22.29;61.01
65884;HTU21D;52663;51.038;5.858;2022-10-23T13:28:40;22.36;60.86
65884;HTU21D;52663;51.038;5.858;2022-10-23T13:33:47;22.47;61.09
65884;HTU21D;52663;51.038;5.858;2022-10-23T13:38:58;22.58;61.01
65884;HTU21D;52663;51.038;5.858;2022-10-23T13:41:27;22.57;60.75
65884;HTU21D;52663;51.038;5.858;2022-10-23T13:43:53;22.48;61.06
65884;HTU21D;52663;51.038;5.858;2022-10-23T13:46:21;22.44;61.13
65884;HTU21D;52663;51.038;5.858;2022-10-23T13:48:48;22.42;61.28
65884;HTU21D;52663;51.038;5.858;2022-10-23T13:51:19;22.39;61.47
65884;HTU21D;52663;51.038;5.858;2022-10-23T13:53:45;22.42;62.06
65884;HTU21D;52663;51.038;5.858;2022-10-23T13:56:13;22.47;62.60
65884;HTU21D;52663;51.038;5.858;2022-10-23T13:58:39;22.50;62.79
65884;HTU21D;52663;51.038;5.858;2022-10-23T14:01:15;22.47;62.91
65884;HTU21D;52663;51.038;5.858;2022-10-23T14:03:43;22.47;63.02
65884;HTU21D;52663;51.038;5.858;2022-10-23T14:06:09;22.49;62.81
65884;HTU21D;52663;51.038;5.858;2022-10-23T14:08:34;22.50;62.63
65884;HTU21D;52663;51.038;5.858;2022-10-23T14:11:00;22.46;62.41
65884;HTU21D;52663;51.038;5.858;2022-10-23T14:13:26;22.38;62.64
65884;HTU21D;52663;51.038;5.858;2022-10-23T14:15:54;22.32;62.93
65884;HTU21D;52663;51.038;5.858;2022-10-23T14:18:20;22.26;63.35
65884;HTU21D;52663;51.038;5.858;2022-10-23T14:20:46;22.24;63.60
65884;HTU21D;52663;51.038;5.858;2022-10-23T14:23:12;22.18;64.00
65884;HTU21D;52663;51.038;5.858;2022-10-23T14:25:37;22.11;64.53
65884;HTU21D;52663;51.038;5.858;2022-10-23T14:28:03;22.08;64.87
65884;HTU21D;52663;51.038;5.858;2022-10-23T14:30:29;22.09;64.91
65884;HTU21D;52663;51.038;5.858;2022-10-23T14:32:55;22.10;65.06
65884;HTU21D;52663;51.038;5.858;2022-10-23T14:35:21;22.10;65.08
65884;HTU21D;52663;51.038;5.858;2022-10-23T14:37:47;22.05;65.04
65884;HTU21D;52663;51.038;5.858;2022-10-23T14:40:12;22.05;64.89
65884;HTU21D;52663;51.038;5.858;2022-10-23T14:42:38;22.05;64.59
65884;HTU21D;52663;51.038;5.858;2022-10-23T14:45:04;21.99;64.34
65884;HTU21D;52663;51.038;5.858;2022-10-23T14:47:31;21.99;64.18
65884;HTU21D;52663;51.038;5.858;2022-10-23T14:49:57;21.97;64.01
65884;HTU21D;52663;51.038;5.858;2022-10-23T14:52:23;21.95;63.84
65884;HTU21D;52663;51.038;5.858;2022-10-23T14:54:52;21.94;63.67
65884;HTU21D;52663;51.038;5.858;2022-10-23T14:57:19;21.91;63.31
65884;HTU21D;52663;51.038;5.858;2022-10-23T14:59:47;21.83;63.28
65884;HTU21D;52663;51.038;5.858;2022-10-23T15:02:15;21.80;63.26
65884;HTU21D;52663;51.038;5.858;2022-10-23T15:04:41;21.78;62.70
65884;HTU21D;52663;51.038;5.858;2022-10-23T15:07:06;21.77;62.37
65884;HTU21D;52663;51.038;5.858;2022-10-23T15:09:33;21.74;62.12
65884;HTU21D;52663;51.038;5.858;2022-10-23T15:12:02;21.73;61.92
65884;HTU21D;52663;51.038;5.858;2022-10-23T15:14:28;21.68;61.86
65884;HTU21D;52663;51.038;5.858;2022-10-23T15:16:53;21.69;61.89
65884;HTU21D;52663;51.038;5.858;2022-10-23T15:19:19;21.70;61.83
65884;HTU21D;52663;51.038;5.858;2022-10-23T15:21:46;21.69;61.75
65884;HTU21D;52663;51.038;5.858;2022-10-23T15:24:13;21.65;61.86
65884;HTU21D;52663;51.038;5.858;2022-10-23T15:26:39;21.64;61.97
65884;HTU21D;52663;51.038;5.858;2022-10-23T15:29:07;21.62;62.02
65884;HTU21D;52663;51.038;5.858;2022-10-23T15:34:03;21.57;62.47
65884;HTU21D;52663;51.038;5.858;2022-10-23T15:36:30;21.55;62.71
65884;HTU21D;52663;51.038;5.858;2022-10-23T15:38:56;21.52;63.08
65884;HTU21D;52663;51.038;5.858;2022-10-23T15:41:28;21.51;63.23
65884;HTU21D;52663;51.038;5.858;2022-10-23T15:43:55;21.47;63.56
65884;HTU21D;52663;51.038;5.858;2022-10-23T15:46:20;21.44;64.20
65884;HTU21D;52663;51.038;5.858;2022-10-23T15:48:49;21.32;65.52
65884;HTU21D;52663;51.038;5.858;2022-10-23T15:51:14;21.08;67.27
65884;HTU21D;52663;51.038;5.858;2022-10-23T15:53:40;20.91;68.41
65884;HTU21D;52663;51.038;5.858;2022-10-23T15:56:06;20.75;69.13
65884;HTU21D;52663;51.038;5.858;2022-10-23T15:58:32;20.54;69.85
65884;HTU21D;52663;51.038;5.858;2022-10-23T16:01:00;20.39;70.71
65884;HTU21D;52663;51.038;5.858;2022-10-23T16:03:34;20.27;71.39
65884;HTU21D;52663;51.038;5.858;2022-10-23T16:06:05;20.16;71.88
65884;HTU21D;52663;51.038;5.858;2022-10-23T16:08:31;20.13;72.23
65884;HTU21D;52663;51.038;5.858;2022-10-23T16:10:57;20.12;72.29
65884;HTU21D;52663;51.038;5.858;2022-10-23T16:13:25;20.13;72.17
65884;HTU21D;52663;51.038;5.858;2022-10-23T16:15:50;20.12;72.09
65884;HTU21D;52663;51.038;5.858;2022-10-23T16:18:19;20.14;72.06
65884;HTU21D;52663;51.038;5.858;2022-10-23T16:20:44;20.16;72.05
65884;HTU21D;52663;51.038;5.858;2022-10-23T16:23:10;20.19;71.92
65884;HTU21D;52663;51.038;5.858;2022-10-23T16:25:37;20.20;71.90
65884;HTU21D;52663;51.038;5.858;2022-10-23T16:28:02;20.22;71.64
65884;HTU21D;52663;51.038;5.858;2022-10-23T16:30:28;20.22;71.67
65884;HTU21D;52663;51.038;5.858;2022-10-23T16:32:54;20.25;71.65
65884;HTU21D;52663;51.038;5.858;2022-10-23T16:35:21;20.26;71.63
65884;HTU21D;52663;51.038;5.858;2022-10-23T16:38:00;20.26;71.65
65884;HTU21D;52663;51.038;5.858;2022-10-23T16:40:26;20.29;71.62
65884;HTU21D;52663;51.038;5.858;2022-10-23T16:43:18;20.31;71.38
65884;HTU21D;52663;51.038;5.858;2022-10-23T16:48:27;20.33;71.02
65884;HTU21D;52663;51.038;5.858;2022-10-23T16:50:53;20.30;70.89
65884;HTU21D;52663;51.038;5.858;2022-10-23T16:53:19;20.30;70.87
65884;HTU21D;52663;51.038;5.858;2022-10-23T16:55:45;20.29;70.87
65884;HTU21D;52663;51.038;5.858;2022-10-23T16:58:11;20.31;70.68
65884;HTU21D;52663;51.038;5.858;2022-10-23T17:00:37;20.31;70.46
65884;HTU21D;52663;51.038;5.858;2022-10-23T17:03:03;20.30;70.40
65884;HTU21D;52663;51.038;5.858;2022-10-23T17:05:34;20.30;70.39
65884;HTU21D;52663;51.038;5.858;2022-10-23T17:08:02;20.34;70.32
65884;HTU21D;52663;51.038;5.858;2022-10-23T17:10:29;20.33;70.13
65884;HTU21D;52663;51.038;5.858;2022-10-23T17:12:55;20.36;69.89
65884;HTU21D;52663;51.038;5.858;2022-10-23T17:15:21;20.35;69.78
65884;HTU21D;52663;51.038;5.858;2022-10-23T17:17:48;20.35;69.63
65884;HTU21D;52663;51.038;5.858;2022-10-23T17:20:14;20.34;69.54
65884;HTU21D;52663;51.038;5.858;2022-10-23T17:22:39;20.33;69.36
65884;HTU21D;52663;51.038;5.858;2022-10-23T17:25:06;20.36;68.97